createdAt,value
2019-05-14T14:16:35.080Z,25.82
2019-05-14T14:19:13.890Z,28.80
2019-05-14T14:21:49.442Z,28.45
2019-05-14T14:24:35.063Z,29.85
2019-05-14T14:27:12.860Z,28.55
2019-05-14T14:29:50.813Z,26.97
2019-05-14T14:32:35.276Z,26.85
2019-05-14T14:35:14.417Z,27.52
2019-05-14T14:37:49.347Z,26.82
2019-05-14T14:40:23.115Z,28.17
2019-05-14T14:42:59.061Z,26.35
2019-05-14T14:45:30.579Z,24.85
2019-05-14T14:48:02.418Z,24.90
2019-05-14T14:50:35.450Z,23.95
2019-05-14T14:53:12.302Z,23.10
2019-05-14T14:55:52.238Z,25.08
2019-05-14T14:58:33.167Z,27.90
2019-05-14T15:01:14.107Z,25.17
2019-05-14T15:03:54.050Z,28.25
2019-05-14T15:06:30.538Z,28.05
2019-05-14T15:09:01.163Z,27.42
2019-05-14T15:11:35.477Z,27.85
2019-05-14T15:14:08.450Z,27.20
2019-05-14T15:16:41.763Z,28.60
2019-05-14T15:19:14.400Z,27.95
2019-05-14T15:21:48.920Z,27.45
2019-05-14T15:24:37.465Z,29.60
2019-05-14T15:27:41.028Z,25.08
2019-05-14T15:44:55.834Z,24.57
2019-05-14T15:47:23.622Z,26.25
2019-05-14T15:50:21.186Z,24.05
2019-05-14T15:52:57.195Z,26.02
2019-05-14T15:55:38.343Z,25.20
2019-05-14T16:00:49.031Z,22.52
2019-05-14T16:03:21.715Z,24.35
2019-05-14T16:06:00.898Z,25.45
2019-05-14T16:08:34.779Z,24.63
2019-05-14T16:11:11.318Z,24.63
2019-05-14T16:13:42.863Z,22.22
2019-05-14T16:16:15.358Z,23.73
2019-05-14T16:18:57.356Z,23.73
2019-05-14T16:21:38.598Z,22.30
2019-05-14T16:24:10.499Z,23.67
2019-05-14T16:26:45.037Z,23.15
2019-05-14T16:29:41.798Z,22.58
2019-05-14T16:32:04.754Z,20.35
2019-05-14T16:34:40.984Z,21.68
2019-05-14T16:37:21.867Z,21.77
2019-05-14T16:40:03.753Z,20.35
2019-05-14T16:42:54.778Z,20.48
2019-05-14T16:45:28.965Z,20.70
2019-05-14T16:48:14.462Z,19.52
2019-05-14T16:50:58.298Z,18.90
2019-05-14T16:53:31.506Z,19.02
2019-05-14T16:56:08.230Z,18.62
2019-05-14T16:58:50.378Z,18.10
2019-05-14T17:01:33.675Z,17.98
2019-05-14T17:04:13.226Z,17.45
2019-05-14T17:06:49.346Z,16.90
2019-05-14T17:09:22.446Z,16.87
2019-05-14T17:11:59.018Z,16.12
2019-05-14T17:14:38.947Z,17.10
2019-05-14T17:17:14.251Z,16.42
2019-05-14T17:19:49.368Z,17.42
2019-05-14T17:22:32.663Z,16.67
2019-05-14T17:25:10.204Z,16.52
2019-05-14T17:27:44.647Z,16.32
2019-05-14T17:30:29.063Z,17.02
2019-05-14T17:33:01.358Z,16.50
2019-05-14T17:35:40.937Z,16.37
2019-05-14T17:38:25.173Z,15.72
2019-05-14T17:40:59.648Z,16.07
2019-05-14T17:43:32.253Z,15.80
2019-05-14T17:46:09.744Z,16.93
2019-05-14T17:48:42.111Z,15.35
2019-05-14T17:54:06.340Z,14.15
2019-05-14T17:56:39.396Z,16.23
2019-05-14T17:59:12.820Z,14.98
2019-05-14T18:01:47.035Z,15.65
2019-05-14T18:04:28.399Z,15.98
2019-05-14T18:07:02.327Z,15.48
2019-05-14T18:09:43.887Z,15.15
2019-05-14T18:12:19.018Z,15.23
2019-05-14T18:14:52.370Z,16.20
2019-05-14T18:17:25.924Z,14.87
2019-05-14T18:19:59.576Z,15.08
2019-05-14T18:22:45.787Z,13.75
2019-05-14T18:25:18.774Z,13.83
2019-05-14T18:27:51.426Z,14.18
2019-05-14T18:30:24.398Z,13.98
2019-05-14T18:32:58.775Z,14.85
2019-05-14T18:35:43.999Z,13.05
2019-05-14T18:38:19.468Z,14.50
2019-05-14T18:40:58.995Z,13.65
2019-05-14T18:43:38.976Z,14.28
2019-05-14T18:46:11.782Z,14.13
2019-05-14T18:48:44.927Z,15.43
2019-05-14T18:51:24.289Z,14.20
2019-05-14T18:54:00.527Z,15.05
2019-05-14T18:56:38.224Z,15.10
2019-05-14T18:59:11.229Z,12.93
2019-05-14T19:04:38.313Z,13.20
2019-05-14T19:07:15.385Z,14.63
2019-05-14T19:09:52.071Z,14.90
2019-05-14T19:12:29.818Z,14.93
2019-05-14T19:15:09.873Z,14.55
2019-05-14T19:17:42.573Z,14.47
2019-05-14T19:20:22.575Z,15.70
2019-05-14T19:22:54.533Z,13.48
2019-05-14T19:25:30.176Z,16.02
2019-05-14T19:28:10.215Z,14.33
2019-05-14T19:30:55.974Z,17.40
2019-05-14T19:33:28.957Z,14.60
2019-05-14T19:36:01.830Z,18.15
2019-05-14T19:38:35.692Z,14.10
2019-05-14T19:41:14.252Z,17.10
2019-05-14T19:43:55.929Z,17.75
2019-05-14T19:46:44.858Z,14.70
2019-05-14T19:49:31.873Z,21.80
2019-05-14T19:52:12.845Z,14.38
2019-05-14T19:54:45.541Z,21.90
2019-05-14T19:57:18.714Z,15.58
2019-05-14T19:59:53.705Z,24.55
2019-05-14T20:02:28.675Z,24.15
2019-05-14T20:05:08.679Z,24.57
2019-05-14T20:07:40.619Z,20.23
2019-05-14T20:10:20.871Z,19.10
2019-05-14T20:13:00.303Z,28.70
2019-05-14T20:15:40.087Z,19.60
2019-05-14T20:18:13.559Z,29.92
2019-05-14T20:20:49.062Z,20.77
2019-05-14T20:23:23.219Z,32.48
2019-05-14T20:26:03.161Z,23.05
2019-05-14T20:28:36.076Z,34.73
2019-05-14T20:31:10.693Z,28.12
2019-05-14T20:33:48.722Z,25.80
2019-05-14T20:36:39.487Z,48.83
2019-05-14T20:39:12.957Z,31.80
2019-05-14T20:41:52.009Z,49.65
2019-05-14T20:44:30.331Z,30.23
2019-05-14T20:47:04.141Z,49.85
2019-05-14T20:49:42.345Z,37.10
2019-05-14T20:52:32.848Z,53.98
2019-05-14T20:55:11.989Z,54.30
2019-05-14T20:57:50.807Z,55.15
2019-05-14T21:00:41.229Z,55.17
2019-05-14T21:03:10.883Z,40.55
2019-05-14T21:05:44.127Z,60.75
2019-05-14T21:08:23.977Z,41.73
2019-05-14T21:10:58.761Z,57.10
2019-05-14T21:13:32.311Z,45.10
2019-05-14T21:16:18.164Z,55.35
2019-05-14T21:18:59.199Z,60.40
2019-05-14T21:21:31.901Z,60.50
2019-05-14T21:24:23.938Z,59.70
2019-05-14T21:29:38.714Z,60.98
2019-05-14T21:32:11.232Z,45.83
2019-05-14T21:34:51.847Z,51.48
2019-05-14T21:37:24.179Z,57.55
2019-05-14T21:39:58.293Z,58.00
2019-05-14T21:42:40.049Z,47.20
2019-05-14T21:45:13.371Z,51.42
2019-05-14T21:47:49.324Z,58.98
2019-05-14T21:50:29.795Z,44.58
2019-05-14T21:53:02.592Z,54.93
2019-05-14T21:55:38.599Z,51.83
2019-05-14T21:58:19.598Z,54.60
2019-05-14T22:00:53.308Z,44.97
2019-05-14T22:03:33.914Z,56.15
2019-05-14T22:06:08.839Z,57.35
2019-05-14T22:08:43.786Z,54.58
2019-05-14T22:11:22.779Z,53.00
2019-05-14T22:14:03.745Z,45.58
2019-05-14T22:16:43.507Z,56.50
2019-05-14T22:19:28.848Z,42.15
2019-05-14T22:22:04.645Z,54.05
2019-05-14T22:24:38.377Z,46.23
2019-05-14T22:27:11.384Z,54.98
2019-05-14T22:29:44.375Z,50.38
2019-05-14T22:32:23.861Z,52.38
2019-05-14T22:34:58.570Z,57.30
2019-05-14T22:37:32.393Z,45.23
2019-05-14T22:40:06.939Z,55.58
